createdAt,value
2023-02-19T00:00:49.976Z,10.85
2023-02-19T00:03:58.948Z,10.78
2023-02-19T00:07:01.526Z,10.64
2023-02-19T00:10:04.145Z,10.54
2023-02-19T00:13:06.879Z,10.66
2023-02-19T00:16:12.180Z,10.64
2023-02-19T00:19:19.410Z,10.55
2023-02-19T00:22:22.072Z,10.40
2023-02-19T00:25:24.568Z,10.31
2023-02-19T00:28:27.077Z,10.32
2023-02-19T00:31:33.381Z,10.36
2023-02-19T00:34:36.372Z,10.38
2023-02-19T00:37:38.645Z,10.45
2023-02-19T00:40:41.098Z,10.51
2023-02-19T00:43:43.631Z,10.43
2023-02-19T00:46:47.921Z,10.44
2023-02-19T00:49:50.167Z,10.52
2023-02-19T00:52:52.664Z,10.50
2023-02-19T00:55:55.390Z,10.53
2023-02-19T00:58:58.460Z,10.59
2023-02-19T01:02:01.013Z,10.60
2023-02-19T01:05:04.075Z,10.70
2023-02-19T01:08:06.564Z,10.65
2023-02-19T01:11:10.311Z,10.71
2023-02-19T01:14:13.053Z,10.77
2023-02-19T01:17:15.976Z,10.90
2023-02-19T01:20:18.519Z,10.85
2023-02-19T01:23:21.137Z,10.87
2023-02-19T01:26:26.529Z,11.01
2023-02-19T01:29:29.164Z,10.93
2023-02-19T01:32:32.767Z,10.90
2023-02-19T01:35:38.685Z,10.85
2023-02-19T01:38:41.477Z,10.73
2023-02-19T01:41:44.071Z,10.63
2023-02-19T01:44:46.612Z,10.56
2023-02-19T01:47:58.429Z,10.67
2023-02-19T01:51:06.176Z,10.51
2023-02-19T01:54:12.237Z,10.43
2023-02-19T01:57:20.975Z,10.39
2023-02-19T02:00:24.809Z,10.36
2023-02-19T02:03:29.477Z,10.31
2023-02-19T02:06:39.316Z,10.25
2023-02-19T02:10:00.843Z,10.26
2023-02-19T02:13:03.358Z,10.36
2023-02-19T02:19:23.638Z,10.45
2023-02-19T02:22:35.056Z,10.58
2023-02-19T02:26:11.266Z,10.58
2023-02-19T02:29:17.632Z,10.62
2023-02-19T02:32:26.587Z,10.76
2023-02-19T02:35:35.066Z,10.78
2023-02-19T02:38:41.613Z,10.72
2023-02-19T02:41:45.804Z,10.70
2023-02-19T02:45:07.879Z,10.56
2023-02-19T02:48:35.177Z,10.58
2023-02-19T02:51:41.559Z,10.52
2023-02-19T02:55:02.910Z,10.50
2023-02-19T02:58:07.640Z,10.55
2023-02-19T03:01:42.871Z,10.53
2023-02-19T03:05:17.701Z,10.48
2023-02-19T03:08:30.181Z,10.56
2023-02-19T03:11:55.184Z,10.50
2023-02-19T03:15:21.524Z,10.50
2023-02-19T03:18:46.833Z,10.54
2023-02-19T03:22:00.676Z,10.51
2023-02-19T03:25:33.109Z,10.29
2023-02-19T03:28:59.569Z,10.30
2023-02-19T03:32:18.337Z,10.10
2023-02-19T03:35:27.693Z,10.07
2023-02-19T03:38:39.870Z,9.99
2023-02-19T03:41:55.979Z,10.17
2023-02-19T03:45:25.532Z,10.05
2023-02-19T03:48:35.780Z,9.87
2023-02-19T03:51:49.984Z,9.85
2023-02-19T03:55:03.113Z,9.82
2023-02-19T03:58:32.669Z,9.83
2023-02-19T04:01:44.554Z,9.61
2023-02-19T04:04:59.202Z,9.52
2023-02-19T04:08:16.557Z,9.89
2023-02-19T04:11:22.535Z,9.61
2023-02-19T04:14:31.785Z,9.93
2023-02-19T04:17:39.257Z,9.95
2023-02-19T04:20:44.639Z,9.71
2023-02-19T04:23:48.120Z,10.01
2023-02-19T04:26:51.379Z,9.78
2023-02-19T04:29:54.188Z,9.72
2023-02-19T04:32:56.385Z,9.63
2023-02-19T04:35:59.877Z,9.73
2023-02-19T04:39:02.093Z,9.52
2023-02-19T04:42:05.556Z,9.48
2023-02-19T04:45:08.261Z,9.27
2023-02-19T04:48:11.277Z,9.39
2023-02-19T04:51:13.751Z,9.23
2023-02-19T04:54:16.642Z,9.17
2023-02-19T04:57:18.998Z,9.13
2023-02-19T05:00:22.635Z,8.82
2023-02-19T05:03:24.830Z,9.07
2023-02-19T05:06:27.549Z,9.00
2023-02-19T05:09:29.736Z,9.05
2023-02-19T05:12:32.528Z,9.04
2023-02-19T05:15:35.651Z,8.98
2023-02-19T05:18:38.453Z,9.07
2023-02-19T05:21:40.772Z,9.12
2023-02-19T05:24:43.506Z,9.21
2023-02-19T05:27:45.883Z,9.17
2023-02-19T05:30:51.287Z,9.16
2023-02-19T05:33:56.815Z,9.17
2023-02-19T05:36:59.433Z,9.13
2023-02-19T05:40:01.977Z,9.06
2023-02-19T05:43:05.320Z,8.96
2023-02-19T05:46:08.204Z,8.91
2023-02-19T05:49:11.069Z,8.86
2023-02-19T05:52:13.376Z,8.80
2023-02-19T05:55:16.536Z,8.73
2023-02-19T05:58:18.761Z,8.89
2023-02-19T06:01:23.222Z,8.80
2023-02-19T06:04:25.773Z,8.76
2023-02-19T06:07:28.044Z,8.84
2023-02-19T06:10:31.645Z,8.72
2023-02-19T06:13:34.186Z,8.77
2023-02-19T06:16:36.684Z,8.82
2023-02-19T06:19:39.209Z,8.88
2023-02-19T06:22:41.790Z,8.82
2023-02-19T06:25:44.028Z,8.82
2023-02-19T06:28:51.193Z,8.88
2023-02-19T06:31:53.963Z,8.89
2023-02-19T06:34:56.867Z,9.08
2023-02-19T06:37:59.166Z,8.94
2023-02-19T06:41:04.180Z,8.97
2023-02-19T06:44:06.721Z,8.97
2023-02-19T06:47:09.768Z,9.06
2023-02-19T06:50:12.091Z,9.06
2023-02-19T06:53:14.754Z,8.86
2023-02-19T06:56:35.701Z,8.96
2023-02-19T06:59:38.220Z,9.04
2023-02-19T07:02:40.391Z,9.05
2023-02-19T07:05:43.878Z,9.06
2023-02-19T07:08:46.201Z,9.20
2023-02-19T07:11:49.194Z,9.10
2023-02-19T07:14:51.405Z,9.34
2023-02-19T07:17:53.957Z,9.18
2023-02-19T07:21:01.648Z,9.27
2023-02-19T07:24:05.691Z,9.32
2023-02-19T07:27:07.998Z,9.44
2023-02-19T07:30:10.954Z,9.40
2023-02-19T07:33:13.130Z,9.55
2023-02-19T07:36:17.706Z,9.55
2023-02-19T07:39:19.967Z,9.70
2023-02-19T07:42:22.824Z,9.81
2023-02-19T07:45:25.324Z,9.90
2023-02-19T07:48:27.902Z,9.83
2023-02-19T07:51:30.290Z,9.94
2023-02-19T07:54:33.150Z,10.00
2023-02-19T07:57:35.530Z,9.89
2023-02-19T08:00:39.028Z,9.92
2023-02-19T08:03:42.807Z,10.08
2023-02-19T08:06:45.125Z,10.13
2023-02-19T08:10:07.946Z,10.19
2023-02-19T08:13:25.268Z,10.41
2023-02-19T08:16:41.085Z,10.38
2023-02-19T08:19:44.952Z,10.13
2023-02-19T08:22:47.778Z,9.89
2023-02-19T08:25:51.837Z,10.11
2023-02-19T08:28:54.674Z,10.02
2023-02-19T08:31:56.800Z,10.20
2023-02-19T08:34:59.337Z,10.31
2023-02-19T08:38:02.091Z,10.38
2023-02-19T08:41:07.346Z,10.47
2023-02-19T08:44:10.255Z,10.62
2023-02-19T08:47:12.811Z,10.84
2023-02-19T08:50:15.905Z,11.03
2023-02-19T08:53:18.392Z,11.08
2023-02-19T08:56:20.605Z,10.96
2023-02-19T08:59:23.919Z,11.01
2023-02-19T09:02:26.246Z,11.18
2023-02-19T09:05:28.690Z,11.33
2023-02-19T09:08:31.229Z,11.32
2023-02-19T09:11:33.756Z,11.21
2023-02-19T09:14:36.447Z,11.02
2023-02-19T09:17:39.295Z,10.97
2023-02-19T09:20:41.454Z,10.92
2023-02-19T09:23:43.947Z,10.74
2023-02-19T09:26:49.705Z,10.42
2023-02-19T09:29:52.846Z,10.35
2023-02-19T09:32:55.066Z,10.36
2023-02-19T09:36:01.615Z,10.51
2023-02-19T09:39:06.691Z,10.33
2023-02-19T09:42:27.210Z,10.07
2023-02-19T09:45:29.583Z,10.17
2023-02-19T09:48:32.546Z,10.45
2023-02-19T09:51:37.902Z,10.84
2023-02-19T09:54:43.677Z,10.95
2023-02-19T09:57:47.068Z,10.92
2023-02-19T10:00:55.940Z,10.91
2023-02-19T10:03:58.643Z,11.25
2023-02-19T10:07:03.815Z,11.46
2023-02-19T10:10:15.522Z,11.47
2023-02-19T10:13:30.783Z,11.35
2023-02-19T10:16:33.885Z,11.33
2023-02-19T10:19:36.648Z,11.37
2023-02-19T10:22:39.153Z,11.59
2023-02-19T10:25:46.981Z,11.82
2023-02-19T10:28:49.715Z,11.91
2023-02-19T10:32:13.673Z,12.15
2023-02-19T10:35:16.710Z,12.64
2023-02-19T10:38:20.790Z,13.03
2023-02-19T10:41:25.949Z,13.23
2023-02-19T10:44:52.022Z,13.44
2023-02-19T10:47:54.693Z,13.38
2023-02-19T10:51:04.956Z,13.40
2023-02-19T10:54:24.989Z,13.30
2023-02-19T10:57:30.555Z,13.21
2023-02-19T11:00:33.746Z,13.11
2023-02-19T11:03:36.032Z,13.11
2023-02-19T11:06:39.068Z,13.28
2023-02-19T11:09:45.440Z,13.30
2023-02-19T11:12:50.497Z,13.50
2023-02-19T11:15:55.163Z,13.57
2023-02-19T11:18:58.329Z,13.60
2023-02-19T11:22:01.626Z,13.74
2023-02-19T11:25:17.862Z,13.79
2023-02-19T11:28:26.837Z,13.77
2023-02-19T11:31:32.726Z,13.63
2023-02-19T11:34:35.611Z,13.69
2023-02-19T11:37:55.890Z,13.77
2023-02-19T11:41:14.692Z,13.80
2023-02-19T11:44:39.269Z,13.80
2023-02-19T11:47:57.939Z,13.70
2023-02-19T11:51:03.784Z,13.66
2023-02-19T11:54:37.485Z,13.64
2023-02-19T11:58:24.587Z,13.65
2023-02-19T12:02:05.061Z,13.64
2023-02-19T12:05:41.848Z,13.71
2023-02-19T12:09:14.864Z,13.79
2023-02-19T12:12:29.549Z,13.74
2023-02-19T12:18:56.411Z,13.80
2023-02-19T12:22:17.053Z,13.79
2023-02-19T12:25:41.888Z,13.76
2023-02-19T12:28:56.124Z,13.75
2023-02-19T12:32:09.847Z,13.78
2023-02-19T12:35:21.067Z,13.98
2023-02-19T12:38:45.102Z,13.98
2023-02-19T12:42:07.028Z,14.23
2023-02-19T12:45:20.714Z,14.21
2023-02-19T12:48:47.479Z,14.30
2023-02-19T12:51:57.482Z,14.36
2023-02-19T12:55:11.657Z,14.46
2023-02-19T12:58:44.646Z,14.71
2023-02-19T13:01:58.116Z,15.28
2023-02-19T13:05:21.092Z,15.73
2023-02-19T13:08:35.583Z,16.01
2023-02-19T13:12:17.725Z,15.98
2023-02-19T13:15:32.815Z,15.80
2023-02-19T13:18:41.898Z,15.61
2023-02-19T13:22:09.881Z,15.48
2023-02-19T13:25:14.805Z,15.01
2023-02-19T13:28:59.353Z,15.07
2023-02-19T13:32:24.437Z,15.28
2023-02-19T13:35:50.989Z,15.36
2023-02-19T13:38:57.324Z,15.10
2023-02-19T13:42:00.122Z,14.92
2023-02-19T13:45:06.223Z,14.76
2023-02-19T13:48:26.474Z,14.54
2023-02-19T13:51:28.863Z,14.25
2023-02-19T13:54:39.973Z,14.00
2023-02-19T13:57:42.536Z,13.74
2023-02-19T14:00:50.768Z,13.67
2023-02-19T14:03:54.463Z,13.51
2023-02-19T14:07:05.669Z,13.11
2023-02-19T14:10:13.742Z,12.24
2023-02-19T14:13:50.699Z,10.96
2023-02-19T14:17:04.961Z,10.34
2023-02-19T14:20:10.316Z,10.19
2023-02-19T14:23:30.890Z,10.07
2023-02-19T14:26:34.533Z,9.99
2023-02-19T14:29:37.577Z,10.02
2023-02-19T14:32:43.596Z,10.02
2023-02-19T14:35:52.556Z,10.01
2023-02-19T14:39:02.489Z,10.12
2023-02-19T14:42:12.320Z,10.25
2023-02-19T14:45:17.967Z,10.47
2023-02-19T14:48:28.876Z,10.57
2023-02-19T14:51:37.164Z,10.56
2023-02-19T14:55:01.662Z,10.73
2023-02-19T14:58:13.459Z,10.82
2023-02-19T15:01:28.815Z,10.88
2023-02-19T15:04:37.054Z,10.97
2023-02-19T15:07:41.894Z,11.00
2023-02-19T15:10:44.886Z,11.03
2023-02-19T15:13:54.450Z,10.94
2023-02-19T15:17:04.088Z,10.81
2023-02-19T15:20:11.517Z,10.69
2023-02-19T15:23:20.949Z,10.57
2023-02-19T15:26:34.306Z,10.46
2023-02-19T15:29:46.211Z,10.40
2023-02-19T15:32:54.716Z,10.32
2023-02-19T15:36:04.712Z,10.32
2023-02-19T15:39:07.360Z,10.24
2023-02-19T15:42:15.750Z,10.15
2023-02-19T15:45:41.534Z,10.07
2023-02-19T15:49:09.753Z,9.95
2023-02-19T15:52:22.620Z,9.86
2023-02-19T15:55:50.822Z,9.77
2023-02-19T15:59:24.366Z,9.59
2023-02-19T16:02:27.837Z,9.61
2023-02-19T16:05:36.966Z,9.72
2023-02-19T16:08:40.490Z,9.65
2023-02-19T16:12:22.021Z,9.59
2023-02-19T16:15:24.626Z,9.65
2023-02-19T16:18:28.940Z,9.66
2023-02-19T16:21:32.071Z,9.72
2023-02-19T16:24:40.694Z,9.73
2023-02-19T16:27:44.377Z,9.71
2023-02-19T16:30:59.100Z,9.65
2023-02-19T16:34:17.675Z,9.68
2023-02-19T16:37:41.042Z,9.75
2023-02-19T16:40:50.832Z,9.81
2023-02-19T16:43:53.318Z,9.73
2023-02-19T16:47:02.045Z,9.88
2023-02-19T16:50:13.265Z,9.93
2023-02-19T16:53:20.329Z,9.77
2023-02-19T16:56:23.336Z,9.66
2023-02-19T16:59:25.508Z,9.49
2023-02-19T17:02:28.871Z,9.30
2023-02-19T17:05:32.560Z,9.22
2023-02-19T17:08:38.504Z,9.07
2023-02-19T17:11:44.516Z,8.91
2023-02-19T17:14:47.334Z,8.84
2023-02-19T17:17:49.570Z,8.84
2023-02-19T17:21:05.114Z,8.79
2023-02-19T17:24:07.941Z,8.79
2023-02-19T17:27:12.332Z,8.77
2023-02-19T17:30:31.405Z,8.70
2023-02-19T17:33:34.281Z,8.78
2023-02-19T17:36:37.977Z,8.76
2023-02-19T17:39:40.467Z,8.70
2023-02-19T17:42:42.993Z,8.69
2023-02-19T17:45:45.828Z,8.74
2023-02-19T17:48:49.050Z,8.63
2023-02-19T17:51:51.924Z,8.71
2023-02-19T17:54:54.479Z,8.62
2023-02-19T17:57:57.307Z,8.55
2023-02-19T18:00:59.535Z,8.65
2023-02-19T18:04:02.734Z,8.62
2023-02-19T18:07:05.145Z,8.60
2023-02-19T18:10:08.384Z,8.70
2023-02-19T18:13:11.013Z,8.77
2023-02-19T18:16:15.658Z,8.77
2023-02-19T18:19:18.452Z,8.75
2023-02-19T18:22:21.460Z,8.85
2023-02-19T18:25:24.813Z,8.76
2023-02-19T18:28:28.232Z,8.66
2023-02-19T18:31:34.329Z,8.71
2023-02-19T18:34:38.008Z,8.74
2023-02-19T18:37:40.559Z,8.65
2023-02-19T18:40:43.865Z,8.53
2023-02-19T18:43:47.497Z,8.54
2023-02-19T18:46:50.728Z,8.49
2023-02-19T18:49:55.707Z,8.41
2023-02-19T18:52:58.323Z,8.42
2023-02-19T18:56:01.997Z,8.29
2023-02-19T18:59:04.644Z,8.24
2023-02-19T19:02:09.286Z,8.28
2023-02-19T19:05:13.613Z,8.10
2023-02-19T19:08:15.854Z,8.13
2023-02-19T19:11:19.669Z,8.16
2023-02-19T19:14:22.335Z,8.15
2023-02-19T19:17:24.931Z,8.20
2023-02-19T19:20:27.904Z,8.33
2023-02-19T19:23:31.428Z,8.61
2023-02-19T19:26:34.731Z,8.64
2023-02-19T19:29:37.759Z,8.69
2023-02-19T19:32:40.201Z,8.65
2023-02-19T19:35:43.494Z,8.66
2023-02-19T19:38:46.932Z,8.57
2023-02-19T19:41:54.876Z,8.60
2023-02-19T19:44:57.077Z,8.63
2023-02-19T19:47:59.658Z,8.61
2023-02-19T19:51:01.947Z,8.48
2023-02-19T19:54:05.085Z,8.40
2023-02-19T19:57:07.918Z,8.34
2023-02-19T20:00:14.568Z,8.27
2023-02-19T20:03:18.450Z,8.29
2023-02-19T20:06:29.838Z,8.21
2023-02-19T20:09:32.778Z,8.02
2023-02-19T20:12:34.920Z,8.05
2023-02-19T20:15:37.473Z,8.01
2023-02-19T20:18:40.466Z,8.01
2023-02-19T20:21:51.279Z,7.96
2023-02-19T20:24:54.677Z,7.85
2023-02-19T20:27:57.741Z,7.85
2023-02-19T20:31:00.508Z,7.80
2023-02-19T20:34:03.576Z,7.92
2023-02-19T20:37:07.291Z,7.84
2023-02-19T20:40:11.376Z,7.79
2023-02-19T20:43:13.736Z,7.73
2023-02-19T20:46:16.770Z,7.79
2023-02-19T20:49:21.770Z,7.87
2023-02-19T20:52:24.836Z,7.82
2023-02-19T20:55:28.040Z,7.75
2023-02-19T20:58:30.867Z,7.63
2023-02-19T21:01:33.123Z,7.74
2023-02-19T21:04:38.623Z,7.73
2023-02-19T21:07:41.129Z,7.61
2023-02-19T21:10:45.514Z,7.63
2023-02-19T21:13:48.271Z,7.58
2023-02-19T21:16:51.361Z,7.43
2023-02-19T21:19:53.664Z,7.20
2023-02-19T21:22:56.826Z,6.98
2023-02-19T21:26:04.446Z,6.81
2023-02-19T21:29:11.047Z,6.77
2023-02-19T21:32:13.899Z,6.72
2023-02-19T21:35:17.537Z,6.43
2023-02-19T21:38:20.061Z,6.30
2023-02-19T21:41:25.941Z,6.21
2023-02-19T21:44:28.499Z,6.14
2023-02-19T21:47:31.686Z,6.05
2023-02-19T21:50:34.241Z,5.95
2023-02-19T21:53:37.442Z,5.92
2023-02-19T21:56:40.607Z,5.74
2023-02-19T21:59:43.372Z,5.71
2023-02-19T22:02:45.859Z,5.67
2023-02-19T22:05:48.984Z,5.65
2023-02-19T22:08:52.257Z,5.62
2023-02-19T22:11:56.119Z,5.49
2023-02-19T22:14:58.315Z,5.51
2023-02-19T22:18:01.104Z,5.48
2023-02-19T22:21:05.118Z,5.40
2023-02-19T22:24:07.995Z,5.25
2023-02-19T22:27:10.360Z,5.23
2023-02-19T22:30:13.403Z,5.21
2023-02-19T22:33:16.059Z,5.16
2023-02-19T22:36:23.255Z,5.11
2023-02-19T22:39:27.029Z,5.06
2023-02-19T22:42:29.895Z,4.97
2023-02-19T22:45:32.437Z,4.97
2023-02-19T22:48:35.299Z,4.91
2023-02-19T22:51:37.852Z,4.87
2023-02-19T22:54:41.532Z,4.88
2023-02-19T22:57:46.112Z,4.89
2023-02-19T23:00:50.121Z,4.92
2023-02-19T23:03:57.736Z,5.01
2023-02-19T23:07:00.644Z,5.11
2023-02-19T23:10:03.404Z,4.98
2023-02-19T23:13:06.088Z,4.87
2023-02-19T23:16:09.408Z,4.82
2023-02-19T23:19:15.506Z,4.79
2023-02-19T23:22:18.145Z,4.80
2023-02-19T23:25:20.961Z,4.76
2023-02-19T23:28:23.685Z,4.76
2023-02-19T23:31:30.032Z,4.76
2023-02-19T23:34:32.555Z,4.70
2023-02-19T23:37:35.756Z,4.68
2023-02-19T23:40:38.615Z,4.67
2023-02-19T23:43:42.021Z,4.56
2023-02-19T23:46:45.304Z,4.59
2023-02-19T23:49:48.690Z,4.53
2023-02-19T23:52:51.176Z,4.64
2023-02-19T23:55:54.039Z,4.55
2023-02-19T23:58:56.839Z,4.53
